Time;durP1;ratioP1;P1;durP2;ratioP2;P2;SDS_P1;SDS_P2;PMS_P1;PMS_P2;Temp;Humidity;BMP_temperature;BMP_pressure;BME280_temperature;BME280_humidity;BME280_pressure;Samples;Min_cycle;Max_cycle;Signal;HPM_P1;HPM_P2
2022/06/10 00:01:50;;;;;;;17.33;11.02;;;;;;;;;;8297530;28;20054;-89
2022/06/10 00:05:56;;;;;;;20.10;13.82;;;;;;;;;;8297464;28;20053;-89
2022/06/10 00:09:59;;;;;;;15.93;11.35;;;;;;;;;;8283717;28;20053;-89
2022/06/10 00:14:04;;;;;;;15.13;10.85;;;;;;;;;;8297401;28;20156;-88
2022/06/10 00:18:07;;;;;;;16.95;11.65;;;;;;;;;;8298303;28;20049;-89
2022/06/10 00:22:10;;;;;;;17.75;11.10;;;;;;;;;;8297248;28;20046;-89
2022/06/10 00:26:14;;;;;;;17.20;10.40;;;;;;;;;;8297315;28;20046;-89
2022/06/10 00:30:19;;;;;;;16.40;10.30;;;;;;;;;;8298632;28;20042;-89
2022/06/10 00:34:22;;;;;;;15.38;10.50;;;;;;;;;;8295878;28;20046;-89
2022/06/10 00:38:24;;;;;;;16.50;10.32;;;;;;;;;;8289633;28;20284;-89
2022/06/10 00:42:27;;;;;;;16.42;10.38;;;;;;;;;;8303294;28;20042;-88
2022/06/10 00:46:35;;;;;;;19.23;11.00;;;;;;;;;;8303276;28;20409;-89
2022/06/10 00:50:38;;;;;;;18.45;10.48;;;;;;;;;;8303066;28;20402;-89
2022/06/10 00:54:45;;;;;;;17.73;11.15;;;;;;;;;;8302983;28;20057;-89
2022/06/10 00:58:53;;;;;;;18.35;11.18;;;;;;;;;;8302980;28;20072;-89
2022/06/10 01:02:58;;;;;;;20.00;11.07;;;;;;;;;;8302713;28;20038;-89
2022/06/10 01:07:01;;;;;;;19.27;11.70;;;;;;;;;;8302356;28;20057;-89
2022/06/10 01:11:21;;;;;;;20.67;11.27;;;;;;;;;;8302482;28;20468;-88
2022/06/10 01:15:35;;;;;;;20.60;11.13;;;;;;;;;;8299984;28;20049;-89
2022/06/10 01:20:02;;;;;;;18.63;11.18;;;;;;;;;;8294539;28;20490;-89
2022/06/10 01:24:38;;;;;;;23.48;11.20;;;;;;;;;;8282777;28;20049;-89
2022/06/10 01:29:01;;;;;;;23.42;11.90;;;;;;;;;;8286350;28;20480;-90
2022/06/10 01:33:15;;;;;;;19.10;11.43;;;;;;;;;;8291323;28;20042;-89
2022/06/10 01:37:23;;;;;;;21.98;12.60;;;;;;;;;;8287182;28;20038;-90
2022/06/10 01:41:33;;;;;;;18.77;11.70;;;;;;;;;;8298415;28;20410;-89
2022/06/10 01:45:40;;;;;;;19.52;11.13;;;;;;;;;;8294811;28;20045;-89
2022/06/10 01:49:51;;;;;;;20.25;11.98;;;;;;;;;;8298036;28;20080;-89
2022/06/10 01:54:00;;;;;;;26.85;12.23;;;;;;;;;;8293251;28;20042;-90
2022/06/10 01:58:08;;;;;;;28.45;13.35;;;;;;;;;;8300198;28;20481;-90
2022/06/10 02:02:16;;;;;;;29.48;13.27;;;;;;;;;;8298243;28;20042;-90
2022/06/10 02:06:25;;;;;;;30.45;12.32;;;;;;;;;;8291885;28;20095;-89
2022/06/10 02:10:36;;;;;;;37.85;12.63;;;;;;;;;;8291900;28;20477;-89
2022/06/10 02:14:43;;;;;;;31.42;12.55;;;;;;;;;;8300446;28;20081;-90
2022/06/10 02:18:50;;;;;;;38.20;12.93;;;;;;;;;;8286152;28;20042;-89
2022/06/10 02:22:57;;;;;;;31.27;11.75;;;;;;;;;;8286097;28;20069;-89
2022/06/10 02:27:05;;;;;;;32.90;11.20;;;;;;;;;;8299820;28;20478;-89
2022/06/10 02:31:20;;;;;;;33.50;11.10;;;;;;;;;;8281668;28;20172;-88
2022/06/10 02:35:23;;;;;;;27.92;10.88;;;;;;;;;;8296579;28;20100;-89
2022/06/10 02:39:34;;;;;;;28.65;10.73;;;;;;;;;;8295382;28;20076;-89
2022/06/10 02:43:45;;;;;;;32.25;11.25;;;;;;;;;;8299015;28;20068;-89
2022/06/10 02:47:52;;;;;;;45.27;12.40;;;;;;;;;;8299105;28;20478;-89
2022/06/10 02:51:55;;;;;;;44.53;13.88;;;;;;;;;;8292904;28;20486;-90
2022/06/10 02:55:59;;;;;;;52.15;14.55;;;;;;;;;;8292208;28;20117;-90
2022/06/10 03:04:36;;;;;;;37.03;13.52;;;;;;;;;;8299200;28;20092;-88
2022/06/10 03:08:43;;;;;;;29.42;12.23;;;;;;;;;;8298845;28;20391;-90
2022/06/10 03:12:56;;;;;;;32.15;12.40;;;;;;;;;;8298987;28;20050;-89
2022/06/10 03:17:17;;;;;;;32.35;12.18;;;;;;;;;;8298750;28;20519;-88
2022/06/10 03:21:28;;;;;;;34.67;13.70;;;;;;;;;;8288463;28;20046;-89
2022/06/10 03:25:37;;;;;;;40.25;15.57;;;;;;;;;;8296562;28;20049;-90
2022/06/10 03:29:50;;;;;;;41.25;15.80;;;;;;;;;;8289498;28;20050;-90
2022/06/10 03:33:56;;;;;;;38.45;14.57;;;;;;;;;;8295252;28;20045;-89
2022/06/10 03:37:59;;;;;;;27.42;13.88;;;;;;;;;;8298344;28;20598;-91
2022/06/10 03:42:15;;;;;;;34.50;14.35;;;;;;;;;;8298412;28;20540;-89
2022/06/10 03:46:22;;;;;;;33.53;14.27;;;;;;;;;;8298006;28;20041;-89
2022/06/10 03:50:28;;;;;;;30.38;14.07;;;;;;;;;;8298025;28;20116;-89
2022/06/10 03:54:31;;;;;;;31.75;14.07;;;;;;;;;;8297819;28;20478;-88
2022/06/10 03:58:33;;;;;;;36.05;17.67;;;;;;;;;;8297852;28;20050;-88
2022/06/10 04:02:37;;;;;;;34.45;14.57;;;;;;;;;;8296548;28;20052;-90
2022/06/10 04:06:40;;;;;;;31.23;14.60;;;;;;;;;;8297367;28;20068;-90
2022/06/10 04:10:42;;;;;;;25.92;13.27;;;;;;;;;;8291881;28;20046;-88
2022/06/10 04:14:45;;;;;;;30.42;13.60;;;;;;;;;;8295973;28;20560;-90
2022/06/10 04:18:49;;;;;;;33.08;13.10;;;;;;;;;;8283686;28;20046;-89
2022/06/10 04:22:52;;;;;;;26.13;12.57;;;;;;;;;;8297423;28;20046;-89
2022/06/10 04:26:55;;;;;;;24.45;11.77;;;;;;;;;;8297158;28;20061;-87
2022/06/10 04:30:58;;;;;;;29.25;12.55;;;;;;;;;;8283474;28;20053;-88
2022/06/10 04:35:02;;;;;;;25.38;12.95;;;;;;;;;;8283317;28;20046;-88
2022/06/10 04:39:05;;;;;;;22.70;11.45;;;;;;;;;;8297188;28;20049;-89
2022/06/10 04:43:09;;;;;;;26.08;12.90;;;;;;;;;;8297108;28;20089;-89
2022/06/10 04:47:11;;;;;;;28.08;12.00;;;;;;;;;;8283117;28;20056;-90
2022/06/10 04:51:16;;;;;;;25.73;12.25;;;;;;;;;;8297042;28;20129;-88
2022/06/10 04:55:19;;;;;;;23.25;11.82;;;;;;;;;;8296962;28;20046;-89
2022/06/10 04:59:22;;;;;;;23.88;10.68;;;;;;;;;;8296899;28;20163;-88
2022/06/10 05:03:25;;;;;;;26.52;11.90;;;;;;;;;;8297313;28;20050;-88
2022/06/10 05:07:29;;;;;;;22.73;10.80;;;;;;;;;;8296474;28;20421;-89
2022/06/10 05:11:31;;;;;;;19.42;10.80;;;;;;;;;;8296588;28;20129;-89
2022/06/10 05:15:34;;;;;;;16.83;10.05;;;;;;;;;;8291511;28;20099;-89
2022/06/10 05:19:37;;;;;;;20.98;11.85;;;;;;;;;;8298890;28;20049;-88
2022/06/10 05:23:45;;;;;;;28.85;12.68;;;;;;;;;;8295558;28;20049;-88
2022/06/10 05:27:47;;;;;;;27.35;14.05;;;;;;;;;;8296081;28;20046;-89
2022/06/10 05:31:50;;;;;;;25.55;13.80;;;;;;;;;;8288233;28;20042;-88
2022/06/10 05:35:53;;;;;;;22.77;13.32;;;;;;;;;;8288078;28;20107;-89
2022/06/10 05:39:58;;;;;;;27.52;15.40;;;;;;;;;;8282054;28;20057;-89
2022/06/10 05:44:03;;;;;;;28.42;17.05;;;;;;;;;;8281443;28;20073;-87
2022/06/10 05:48:09;;;;;;;32.53;18.10;;;;;;;;;;8272517;28;20054;-90
2022/06/10 05:52:19;;;;;;;23.95;14.70;;;;;;;;;;8300888;28;20046;-90
2022/06/10 05:56:28;;;;;;;25.00;15.20;;;;;;;;;;8301364;28;20522;-88
2022/06/10 06:00:32;;;;;;;22.40;14.48;;;;;;;;;;8300948;28;20054;-89
2022/06/10 06:04:36;;;;;;;31.95;17.88;;;;;;;;;;8299852;28;20045;-88
2022/06/10 06:08:40;;;;;;;23.13;15.30;;;;;;;;;;8278851;28;20062;-88
2022/06/10 06:12:48;;;;;;;27.15;15.95;;;;;;;;;;8274965;28;20073;-87
2022/06/10 06:16:59;;;;;;;25.48;15.52;;;;;;;;;;8299798;28;20046;-88
2022/06/10 06:21:09;;;;;;;26.42;16.95;;;;;;;;;;8300523;28;20054;-88
2022/06/10 06:25:16;;;;;;;26.50;17.27;;;;;;;;;;8296983;28;20129;-87
2022/06/10 06:29:21;;;;;;;27.90;17.15;;;;;;;;;;8299154;28;20069;-88
2022/06/10 06:33:23;;;;;;;30.30;17.95;;;;;;;;;;8299980;28;20069;-88
2022/06/10 06:37:26;;;;;;;27.70;17.27;;;;;;;;;;8299944;28;20048;-86
2022/06/10 06:41:29;;;;;;;22.48;14.82;;;;;;;;;;8299880;28;20091;-87
2022/06/10 06:45:34;;;;;;;25.98;16.83;;;;;;;;;;8299520;28;20111;-86
2022/06/10 06:49:37;;;;;;;31.75;18.95;;;;;;;;;;8299618;28;20045;-87
2022/06/10 06:53:40;;;;;;;30.80;19.45;;;;;;;;;;8299554;28;20084;-90
2022/06/10 06:57:44;;;;;;;31.05;18.65;;;;;;;;;;8296660;28;20125;-87
2022/06/10 07:01:48;;;;;;;29.85;19.02;;;;;;;;;;8291397;28;20049;-87
2022/06/10 07:05:51;;;;;;;25.95;17.42;;;;;;;;;;8292729;28;20045;-89
2022/06/10 07:09:54;;;;;;;22.92;15.52;;;;;;;;;;8287708;28;20058;-88
2022/06/10 07:13:56;;;;;;;22.40;15.73;;;;;;;;;;8287562;28;20457;-90
2022/06/10 07:18:02;;;;;;;22.95;16.58;;;;;;;;;;8292142;28;20041;-88
2022/06/10 07:22:05;;;;;;;24.27;16.60;;;;;;;;;;8286672;28;20064;-89
2022/06/10 07:26:08;;;;;;;29.85;17.38;;;;;;;;;;8287329;28;20053;-89
2022/06/10 07:30:13;;;;;;;26.58;17.13;;;;;;;;;;8291386;28;20112;-89
2022/06/10 07:34:17;;;;;;;25.73;17.15;;;;;;;;;;8290807;28;20449;-88
2022/06/10 07:38:20;;;;;;;30.02;17.30;;;;;;;;;;8290256;28;20042;-90
2022/06/10 07:42:23;;;;;;;25.35;15.50;;;;;;;;;;8283735;28;20053;-88
2022/06/10 07:46:25;;;;;;;19.60;13.27;;;;;;;;;;8293065;28;20046;-88
2022/06/10 07:50:30;;;;;;;22.98;15.68;;;;;;;;;;8293335;28;20092;-90
2022/06/10 07:54:33;;;;;;;21.88;14.45;;;;;;;;;;8283848;28;20486;-87
2022/06/10 07:58:37;;;;;;;22.88;15.98;;;;;;;;;;8279732;28;20418;-88
2022/06/10 08:02:48;;;;;;;30.60;16.63;;;;;;;;;;8281751;28;20548;-88
2022/06/10 08:06:56;;;;;;;19.48;13.88;;;;;;;;;;8275330;28;20089;-89
2022/06/10 08:11:04;;;;;;;21.80;14.70;;;;;;;;;;8292301;28;20125;-89
2022/06/10 08:15:12;;;;;;;22.00;15.15;;;;;;;;;;8292459;28;20406;-90
2022/06/10 08:19:18;;;;;;;23.00;13.65;;;;;;;;;;8292827;28;20577;-89
2022/06/10 08:23:28;;;;;;;20.98;13.45;;;;;;;;;;8292838;28;20062;-88
2022/06/10 08:27:35;;;;;;;17.20;11.80;;;;;;;;;;8292517;28;20085;-88
2022/06/10 08:31:39;;;;;;;16.80;11.95;;;;;;;;;;8278629;28;20057;-86
2022/06/10 08:35:46;;;;;;;13.63;11.15;;;;;;;;;;8292415;28;20103;-88
2022/06/10 08:39:52;;;;;;;19.60;12.20;;;;;;;;;;8283180;28;20050;-85
2022/06/10 08:44:11;;;;;;;23.10;12.65;;;;;;;;;;8289675;28;20096;-85
2022/06/10 08:48:25;;;;;;;20.40;11.80;;;;;;;;;;8293883;28;20493;-86
2022/06/10 08:52:40;;;;;;;14.43;10.38;;;;;;;;;;8298095;28;20099;-87
2022/06/10 08:56:49;;;;;;;13.75;11.18;;;;;;;;;;8298554;28;20141;-87
2022/06/10 09:00:54;;;;;;;16.00;10.52;;;;;;;;;;8298301;28;20054;-86
2022/06/10 09:05:04;;;;;;;11.45;10.02;;;;;;;;;;8297696;28;20504;-86
2022/06/10 09:09:11;;;;;;;10.90;8.50;;;;;;;;;;8296520;28;20517;-87
2022/06/10 09:13:38;;;;;;;10.55;8.35;;;;;;;;;;8290000;28;20058;-89
2022/06/10 09:17:44;;;;;;;9.65;8.65;;;;;;;;;;8286120;28;20046;-89
2022/06/10 09:21:52;;;;;;;11.98;9.95;;;;;;;;;;8292871;28;20437;-87
2022/06/10 09:26:06;;;;;;;10.60;8.77;;;;;;;;;;8273152;28;20153;-89
2022/06/10 09:30:16;;;;;;;9.10;7.72;;;;;;;;;;8285788;28;20045;-88
2022/06/10 09:34:30;;;;;;;10.60;6.90;;;;;;;;;;8287517;28;20053;-89
2022/06/10 09:38:40;;;;;;;8.85;6.50;;;;;;;;;;8288061;28;20050;-88
2022/06/10 09:42:59;;;;;;;7.53;6.38;;;;;;;;;;8290618;28;20050;-87
2022/06/10 09:47:24;;;;;;;9.43;6.05;;;;;;;;;;8284944;28;20062;-87
2022/06/10 09:51:34;;;;;;;9.45;5.60;;;;;;;;;;8288046;28;20052;-88
2022/06/10 09:55:52;;;;;;;7.28;5.10;;;;;;;;;;8292106;28;20429;-88
2022/06/10 10:00:01;;;;;;;7.35;5.25;;;;;;;;;;8258244;28;20046;-88
2022/06/10 10:04:53;;;;;;;7.17;5.00;;;;;;;;;;8299464;28;20068;-89
2022/06/10 10:09:07;;;;;;;9.57;7.13;;;;;;;;;;8273898;28;20383;-86
2022/06/10 10:13:40;;;;;;;8.88;6.13;;;;;;;;;;8299752;28;20050;-85
2022/06/10 10:18:08;;;;;;;7.80;6.30;;;;;;;;;;8287231;28;20497;-88
2022/06/10 10:22:35;;;;;;;9.13;7.38;;;;;;;;;;8287837;28;20041;-87
2022/06/10 10:26:49;;;;;;;11.77;6.50;;;;;;;;;;8299764;28;20406;-86
2022/06/10 10:31:16;;;;;;;7.63;6.45;;;;;;;;;;8301124;28;20072;-86
2022/06/10 10:35:25;;;;;;;9.10;6.90;;;;;;;;;;8300037;28;20504;-89
2022/06/10 10:39:38;;;;;;;12.70;9.55;;;;;;;;;;8287218;28;20045;-85
2022/06/10 10:43:49;;;;;;;9.98;7.05;;;;;;;;;;8291983;28;20133;-89
2022/06/10 10:47:57;;;;;;;11.90;6.07;;;;;;;;;;8296769;28;20128;-89
2022/06/10 10:52:10;;;;;;;7.53;5.53;;;;;;;;;;8296540;28;20119;-89
2022/06/10 10:56:19;;;;;;;8.40;6.60;;;;;;;;;;8299482;28;20041;-85
2022/06/10 11:00:34;;;;;;;7.90;6.80;;;;;;;;;;8299122;28;20038;-86
2022/06/10 11:04:41;;;;;;;8.02;6.00;;;;;;;;;;8293162;28;20045;-86
2022/06/10 11:09:02;;;;;;;7.63;6.40;;;;;;;;;;8283082;28;20520;-85
2022/06/10 11:13:22;;;;;;;8.80;7.28;;;;;;;;;;8292567;28;20050;-86
2022/06/10 11:17:33;;;;;;;9.45;5.90;;;;;;;;;;8293822;28;20054;-85
2022/06/10 11:22:26;;;;;;;8.95;5.78;;;;;;;;;;8293294;28;20096;-84
2022/06/10 11:26:39;;;;;;;10.13;6.13;;;;;;;;;;8292173;28;20053;-86
2022/06/10 11:30:50;;;;;;;9.50;6.60;;;;;;;;;;8280308;28;20447;-85
2022/06/10 11:35:02;;;;;;;18.88;7.70;;;;;;;;;;8293624;28;20554;-85
2022/06/10 11:39:18;;;;;;;12.32;7.85;;;;;;;;;;8280163;28;20592;-85
2022/06/10 11:43:27;;;;;;;13.40;8.45;;;;;;;;;;8293116;28;20062;-86
2022/06/10 11:47:40;;;;;;;12.40;8.20;;;;;;;;;;8278548;28;20410;-84
2022/06/10 11:51:58;;;;;;;16.88;10.13;;;;;;;;;;8293320;28;20540;-85
2022/06/10 12:00:41;;;;;;;16.60;11.32;;;;;;;;;;8232134;28;20065;-86
2022/06/10 12:04:54;;;;;;;15.80;10.85;;;;;;;;;;8289651;28;20045;-83
2022/06/10 12:09:01;;;;;;;13.77;9.63;;;;;;;;;;8291517;28;20477;-84
2022/06/10 12:13:11;;;;;;;14.35;9.88;;;;;;;;;;8289103;28;20068;-85
2022/06/10 12:17:24;;;;;;;13.30;10.48;;;;;;;;;;8293023;28;20104;-84
2022/06/10 12:21:30;;;;;;;13.43;10.35;;;;;;;;;;8290889;28;20056;-84
2022/06/10 12:25:53;;;;;;;12.43;10.13;;;;;;;;;;8298592;28;20544;-87
2022/06/10 12:30:06;;;;;;;11.90;9.98;;;;;;;;;;8298468;28;20049;-84
2022/06/10 12:34:17;;;;;;;16.45;10.95;;;;;;;;;;8296321;28;20141;-85
2022/06/10 12:38:25;;;;;;;18.20;11.13;;;;;;;;;;8299065;28;20091;-85
2022/06/10 12:42:40;;;;;;;12.85;10.27;;;;;;;;;;8295921;28;20690;-85
2022/06/10 12:47:10;;;;;;;12.80;10.52;;;;;;;;;;8295554;28;20045;-86
2022/06/10 12:51:32;;;;;;;13.55;10.63;;;;;;;;;;8298347;28;20069;-85
2022/06/10 12:55:46;;;;;;;14.38;10.43;;;;;;;;;;8298857;28;20045;-82
2022/06/10 13:00:35;;;;;;;17.73;11.10;;;;;;;;;;8298186;28;20061;-83
2022/06/10 13:05:07;;;;;;;16.65;11.07;;;;;;;;;;8295233;28;20060;-85
2022/06/10 13:09:27;;;;;;;15.50;10.43;;;;;;;;;;8288402;28;20096;-83
2022/06/10 13:13:39;;;;;;;16.65;11.38;;;;;;;;;;8291711;28;20426;-84
2022/06/10 13:18:01;;;;;;;18.83;11.32;;;;;;;;;;8294463;28;20133;-85
2022/06/10 13:22:38;;;;;;;14.02;11.02;;;;;;;;;;8293117;28;20034;-84
2022/06/10 13:26:42;;;;;;;14.43;10.15;;;;;;;;;;8199107;28;20058;-84
2022/06/10 13:30:54;;;;;;;20.33;9.48;;;;;;;;;;8298810;28;20052;-84
2022/06/10 13:35:06;;;;;;;12.00;8.63;;;;;;;;;;8298272;28;20044;-84
2022/06/10 13:39:21;;;;;;;11.82;8.60;;;;;;;;;;8300102;28;20050;-84
2022/06/10 13:43:32;;;;;;;13.23;9.65;;;;;;;;;;8299694;28;20042;-83
2022/06/10 13:47:38;;;;;;;11.40;8.73;;;;;;;;;;8299744;28;20042;-85
2022/06/10 13:51:48;;;;;;;11.60;9.07;;;;;;;;;;8301222;28;20057;-84
2022/06/10 13:55:56;;;;;;;10.52;8.02;;;;;;;;;;8285420;28;20050;-84
2022/06/10 14:00:02;;;;;;;8.75;7.22;;;;;;;;;;8285236;28;20485;-86
2022/06/10 14:04:10;;;;;;;8.38;6.50;;;;;;;;;;8283574;28;20038;-83
2022/06/10 14:08:22;;;;;;;11.68;6.75;;;;;;;;;;8300750;28;20062;-88
2022/06/10 14:12:29;;;;;;;14.50;7.38;;;;;;;;;;8293614;28;20072;-84
2022/06/10 14:16:37;;;;;;;8.32;5.75;;;;;;;;;;8294901;28;20053;-84
2022/06/10 14:20:47;;;;;;;7.15;5.25;;;;;;;;;;8300564;28;20042;-84
2022/06/10 14:25:20;;;;;;;6.07;4.87;;;;;;;;;;8301307;28;20095;-89
2022/06/10 14:29:46;;;;;;;7.55;5.60;;;;;;;;;;8290583;28;20445;-89
2022/06/10 14:34:08;;;;;;;6.93;5.22;;;;;;;;;;8286968;28;20061;-88
2022/06/10 14:39:06;;;;;;;7.95;5.40;;;;;;;;;;8297843;28;20528;-88
2022/06/10 14:48:16;;;;;;;5.00;4.00;;;;;;;;;;8296439;28;20055;-88
2022/06/10 14:52:29;;;;;;;5.43;4.32;;;;;;;;;;8292712;28;20104;-89
2022/06/10 14:56:41;;;;;;;8.57;4.68;;;;;;;;;;8294193;28;20983;-88
2022/06/10 15:00:49;;;;;;;6.97;4.65;;;;;;;;;;8297221;28;20034;-88
2022/06/10 15:09:32;;;;;;;7.97;5.25;;;;;;;;;;8296721;28;20061;-89
2022/06/10 15:13:46;;;;;;;7.53;5.50;;;;;;;;;;8296945;28;20128;-88
2022/06/10 15:17:52;;;;;;;6.65;5.03;;;;;;;;;;8289107;28;20108;-87
2022/06/10 15:21:59;;;;;;;9.15;5.10;;;;;;;;;;8293940;28;20073;-86
2022/06/10 15:26:06;;;;;;;6.55;4.80;;;;;;;;;;8296573;28;20474;-89
2022/06/10 15:30:19;;;;;;;5.82;4.53;;;;;;;;;;8288464;28;20458;-89
2022/06/10 15:34:25;;;;;;;6.30;5.03;;;;;;;;;;8295926;28;20080;-88
2022/06/10 15:43:15;;;;;;;8.02;5.28;;;;;;;;;;8293825;28;20115;-87
2022/06/10 15:47:27;;;;;;;8.63;5.63;;;;;;;;;;8295818;28;20502;-88
2022/06/10 15:51:48;;;;;;;10.85;5.85;;;;;;;;;;8290045;28;20133;-87
2022/06/10 16:00:29;;;;;;;8.07;6.35;;;;;;;;;;8295515;28;20120;-87
2022/06/10 16:04:43;;;;;;;10.35;6.03;;;;;;;;;;8290409;28;20141;-88
2022/06/10 16:08:46;;;;;;;7.13;5.80;;;;;;;;;;8288349;28;20416;-87
2022/06/10 16:13:01;;;;;;;7.55;5.15;;;;;;;;;;8290737;28;20164;-88
2022/06/10 16:17:05;;;;;;;5.95;4.88;;;;;;;;;;8290507;28;20046;-86
2022/06/10 16:21:16;;;;;;;8.20;5.13;;;;;;;;;;8295305;28;20087;-86
2022/06/10 16:25:22;;;;;;;6.22;4.82;;;;;;;;;;8282484;28;20049;-84
2022/06/10 16:29:29;;;;;;;8.80;4.88;;;;;;;;;;8279888;28;20054;-85
2022/06/10 16:33:32;;;;;;;8.00;5.03;;;;;;;;;;8295056;28;20477;-86
2022/06/10 16:37:36;;;;;;;6.07;4.63;;;;;;;;;;8295352;28;20536;-85
2022/06/10 16:41:43;;;;;;;9.65;5.30;;;;;;;;;;8294801;28;20046;-84
2022/06/10 16:45:49;;;;;;;7.13;4.70;;;;;;;;;;8282891;28;20092;-83
2022/06/10 16:49:53;;;;;;;5.97;4.20;;;;;;;;;;8284971;28;20049;-88
2022/06/10 16:53:58;;;;;;;8.65;4.25;;;;;;;;;;8289469;28;20052;-87
2022/06/10 16:58:01;;;;;;;4.80;3.80;;;;;;;;;;8294391;28;20107;-84
2022/06/10 17:02:18;;;;;;;7.05;4.90;;;;;;;;;;8277146;28;20042;-85
2022/06/10 17:06:26;;;;;;;6.30;4.47;;;;;;;;;;8273569;28;20046;-85
2022/06/10 17:10:32;;;;;;;7.75;5.00;;;;;;;;;;8289970;28;20057;-84
2022/06/10 17:14:36;;;;;;;8.57;4.80;;;;;;;;;;8300808;28;20046;-85
2022/06/10 17:18:44;;;;;;;6.78;4.40;;;;;;;;;;8287344;28;20096;-84
2022/06/10 17:22:54;;;;;;;8.95;5.00;;;;;;;;;;8300843;28;20125;-84
2022/06/10 17:27:04;;;;;;;7.22;4.75;;;;;;;;;;8300052;28;20474;-84
2022/06/10 17:31:14;;;;;;;6.93;4.35;;;;;;;;;;8297529;28;20489;-84
2022/06/10 17:35:20;;;;;;;9.63;5.40;;;;;;;;;;8298408;28;20050;-86
2022/06/10 17:39:24;;;;;;;9.20;5.32;;;;;;;;;;8298156;28;20402;-85
2022/06/10 17:43:44;;;;;;;6.95;5.22;;;;;;;;;;8298868;28;20465;-85
2022/06/10 17:47:48;;;;;;;8.43;5.10;;;;;;;;;;8296852;28;20046;-86
2022/06/10 17:51:57;;;;;;;8.55;5.85;;;;;;;;;;8297200;28;20049;-86
2022/06/10 17:56:00;;;;;;;6.47;5.40;;;;;;;;;;8296739;28;20046;-86
2022/06/10 18:00:16;;;;;;;7.97;5.80;;;;;;;;;;8296360;28;20173;-85
2022/06/10 18:04:22;;;;;;;8.50;6.00;;;;;;;;;;8283050;28;20049;-86
2022/06/10 18:08:33;;;;;;;8.80;5.45;;;;;;;;;;8296183;28;20062;-84
2022/06/10 18:12:40;;;;;;;9.98;6.35;;;;;;;;;;8296361;28;20046;-84
2022/06/10 18:16:47;;;;;;;11.57;6.00;;;;;;;;;;8296011;28;20509;-86
2022/06/10 18:20:51;;;;;;;9.60;6.18;;;;;;;;;;8295634;28;20057;-88
2022/06/10 18:24:56;;;;;;;8.70;6.70;;;;;;;;;;8295567;28;20157;-86
2022/06/10 18:29:05;;;;;;;7.78;5.90;;;;;;;;;;8295433;28;20141;-87
2022/06/10 18:33:13;;;;;;;7.28;5.97;;;;;;;;;;8295477;28;20073;-87
2022/06/10 18:37:18;;;;;;;8.77;6.57;;;;;;;;;;8295452;28;20426;-86
2022/06/10 18:41:21;;;;;;;12.30;6.18;;;;;;;;;;8296456;28;20393;-86
2022/06/10 18:45:25;;;;;;;10.65;6.57;;;;;;;;;;8294915;28;20054;-86
2022/06/10 18:49:33;;;;;;;11.18;6.45;;;;;;;;;;8289674;28;20093;-86
2022/06/10 18:53:36;;;;;;;7.80;6.80;;;;;;;;;;8287490;28;20046;-86
2022/06/10 18:57:40;;;;;;;17.88;7.95;;;;;;;;;;8293797;28;20050;-86
2022/06/10 19:01:43;;;;;;;11.85;8.55;;;;;;;;;;8297081;28;20056;-88
2022/06/10 19:05:50;;;;;;;11.00;8.35;;;;;;;;;;8290718;28;20082;-88
2022/06/10 19:09:54;;;;;;;10.15;7.78;;;;;;;;;;8297392;28;20410;-86
2022/06/10 19:14:00;;;;;;;10.60;8.68;;;;;;;;;;8294803;28;20482;-87
2022/06/10 19:18:04;;;;;;;12.15;8.07;;;;;;;;;;8298051;28;20474;-86
2022/06/10 19:22:18;;;;;;;12.10;9.30;;;;;;;;;;8294921;28;20050;-87
2022/06/10 19:26:26;;;;;;;14.57;9.52;;;;;;;;;;8297554;28;20042;-86
2022/06/10 19:30:37;;;;;;;12.55;8.63;;;;;;;;;;8296229;28;20115;-87
2022/06/10 19:34:45;;;;;;;11.63;8.50;;;;;;;;;;8297015;28;20048;-87
2022/06/10 19:38:50;;;;;;;12.35;8.65;;;;;;;;;;8298408;28;20049;-86
2022/06/10 19:42:55;;;;;;;16.13;10.60;;;;;;;;;;8298772;28;20119;-87
2022/06/10 19:46:59;;;;;;;16.67;10.02;;;;;;;;;;8298170;28;20053;-87
2022/06/10 19:51:11;;;;;;;15.57;10.50;;;;;;;;;;8296775;28;20046;-86
2022/06/10 19:55:22;;;;;;;13.50;10.20;;;;;;;;;;8297673;28;20052;-87
2022/06/10 19:59:25;;;;;;;13.55;10.52;;;;;;;;;;8297978;28;20037;-85
2022/06/10 20:03:31;;;;;;;14.85;10.32;;;;;;;;;;8297789;28;20410;-87
2022/06/10 20:07:34;;;;;;;13.32;9.77;;;;;;;;;;8297326;28;20058;-87
2022/06/10 20:11:39;;;;;;;14.82;10.10;;;;;;;;;;8290945;28;20050;-86
2022/06/10 20:15:50;;;;;;;13.73;10.07;;;;;;;;;;8291472;28;20041;-86
2022/06/10 20:19:55;;;;;;;21.50;11.27;;;;;;;;;;8297751;28;20504;-85
2022/06/10 20:23:59;;;;;;;14.73;10.20;;;;;;;;;;8283656;28;20540;-87
2022/06/10 20:28:05;;;;;;;14.50;10.00;;;;;;;;;;8297109;28;20073;-87
2022/06/10 20:32:19;;;;;;;15.95;9.57;;;;;;;;;;8297413;28;20091;-87
2022/06/10 20:36:26;;;;;;;14.38;11.90;;;;;;;;;;8283559;28;20038;-87
2022/06/10 20:40:33;;;;;;;17.70;13.13;;;;;;;;;;8297301;28;20046;-85
2022/06/10 20:44:38;;;;;;;16.45;11.23;;;;;;;;;;8287301;28;20042;-87
2022/06/10 20:48:45;;;;;;;16.58;12.75;;;;;;;;;;8303429;28;20041;-87
2022/06/10 20:52:50;;;;;;;13.65;10.50;;;;;;;;;;8303807;28;20054;-85
2022/06/10 20:56:53;;;;;;;14.82;10.80;;;;;;;;;;8289373;28;20494;-86
2022/06/10 21:00:57;;;;;;;15.77;11.30;;;;;;;;;;8303574;28;20050;-86
2022/06/10 21:09:23;;;;;;;16.40;10.93;;;;;;;;;;8302580;28;20598;-86
2022/06/10 21:13:26;;;;;;;12.75;10.55;;;;;;;;;;8302799;28;20046;-86
2022/06/10 21:17:36;;;;;;;15.43;10.85;;;;;;;;;;8303053;28;20046;-86
2022/06/10 21:21:39;;;;;;;19.80;11.50;;;;;;;;;;8302606;28;20046;-86
2022/06/10 21:25:43;;;;;;;18.13;12.40;;;;;;;;;;8289025;28;20472;-85
2022/06/10 21:29:47;;;;;;;15.75;11.43;;;;;;;;;;8302631;28;20061;-87
2022/06/10 21:33:54;;;;;;;16.70;11.98;;;;;;;;;;8288415;28;20424;-85
2022/06/10 21:37:59;;;;;;;16.65;11.60;;;;;;;;;;8288228;28;20046;-86
2022/06/10 21:46:28;;;;;;;15.70;11.57;;;;;;;;;;8287996;28;20121;-85
2022/06/10 21:50:40;;;;;;;15.25;11.95;;;;;;;;;;8301551;28;20038;-85
2022/06/10 21:54:43;;;;;;;13.40;10.57;;;;;;;;;;8300893;28;20076;-87
2022/06/10 21:58:46;;;;;;;15.15;12.57;;;;;;;;;;8287662;28;20057;-86
2022/06/10 22:02:48;;;;;;;14.77;10.63;;;;;;;;;;8301336;28;20042;-86
2022/06/10 22:06:56;;;;;;;13.20;10.23;;;;;;;;;;8300987;28;20050;-87
2022/06/10 22:11:00;;;;;;;13.35;11.15;;;;;;;;;;8297182;28;20402;-87
2022/06/10 22:15:07;;;;;;;15.50;11.25;;;;;;;;;;8282236;28;20058;-86
2022/06/10 22:19:18;;;;;;;17.55;12.60;;;;;;;;;;8297454;28;20099;-86
2022/06/10 22:23:25;;;;;;;17.90;11.52;;;;;;;;;;8300730;28;20053;-87
2022/06/10 22:27:29;;;;;;;13.18;10.85;;;;;;;;;;8286804;28;20050;-86
2022/06/10 22:31:33;;;;;;;14.68;11.93;;;;;;;;;;8300287;28;20130;-86
2022/06/10 22:35:39;;;;;;;14.98;10.15;;;;;;;;;;8300327;28;20078;-86
2022/06/10 22:39:43;;;;;;;12.60;10.25;;;;;;;;;;8286332;28;20046;-86
2022/06/10 22:43:46;;;;;;;16.83;11.13;;;;;;;;;;8292384;28;20046;-86
2022/06/10 22:47:52;;;;;;;18.33;10.50;;;;;;;;;;8294517;28;20061;-86
2022/06/10 22:51:58;;;;;;;17.75;11.63;;;;;;;;;;8299707;28;20041;-86
2022/06/10 22:56:02;;;;;;;14.90;10.50;;;;;;;;;;8289276;28;20053;-86
2022/06/10 23:00:08;;;;;;;18.33;10.27;;;;;;;;;;8297065;28;20052;-85
2022/06/10 23:10:31;;;;;;;18.83;11.93;;;;;;;;;;8297546;28;20123;-86
2022/06/10 23:13:05;;;;;;;14.60;11.27;;;;;;;;;;8287827;28;20046;-86
2022/06/10 23:17:08;;;;;;;18.05;10.93;;;;;;;;;;8299177;28;20054;-86
2022/06/10 23:21:15;;;;;;;15.75;12.73;;;;;;;;;;8298616;28;20465;-86
2022/06/10 23:25:19;;;;;;;13.50;11.38;;;;;;;;;;8285063;28;20045;-86
2022/06/10 23:29:24;;;;;;;12.13;10.23;;;;;;;;;;8298501;28;20042;-87
2022/06/10 23:33:27;;;;;;;12.85;10.25;;;;;;;;;;8298611;28;20037;-86
2022/06/10 23:37:33;;;;;;;13.15;10.25;;;;;;;;;;8298366;28;20049;-85
2022/06/10 23:41:36;;;;;;;11.05;8.75;;;;;;;;;;8298208;28;20104;-86
2022/06/10 23:54:25;;;;;;;14.07;8.77;;;;;;;;;;8298119;28;20046;-85
2022/06/10 23:58:30;;;;;;;11.20;8.15;;;;;;;;;;8297894;28;20137;-86
